Daikoku — JD3247 — position and weather

sailwx.info

Track history (hours):
 
Tides and Currents Weather Stations Pressure Air Temp Water Temp Dewpoint Dewpoint Depression Visibility Wind Speed Wind Dir Waves Ship Positions

Daikoku

Last reported at 2016-Feb-04 08:05 UTC. Time now 2016-Feb-10 08:49 UTC.
Position N 34°37' E 135°01'.

Length 95 m; draft 3.9 m.

Type: Cargo ship. MMSI: 431003009.

Date/timePositionNaut miles runAvg speedWind from/ knotsBaromVisibWave heightAir tempDewpointWater temp
2016-Feb-04 08:05N 34°37' E 135°01'712.6
2016-Feb-04 07:33N 34°36' E 135°09'8 7.3
2016-Feb-04 06:29N 34°41' E 135°17'0 0.0
2016-Feb-04 05:30N 34°41' E 135°17'4 3.9
2016-Feb-04 04:29N 34°37' E 135°16'0 0.2
2016-Feb-04 02:33N 34°37' E 135°16'2 1.9
2016-Feb-04 01:29N 34°39' E 135°15'1 1.0
2016-Feb-04 00:33N 34°40' E 135°15'2 1.4
2016-Feb-03 23:26N 34°41' E 135°17'5 4.1
2016-Feb-03 22:20N 34°37' E 135°14'0 0.0
2016-Feb-03 21:20N 34°37' E 135°14'1 1.4
2016-Feb-03 20:33N 34°36' E 135°14'1010.5
2016-Feb-03 19:33N 34°37' E 135°01'235 6.7
2016-Feb-02 08:33N 33°48' E 130°22'1010.0
2016-Feb-02 07:33N 33°39' E 130°17'6 5.9
2016-Feb-02 06:31N 33°39' E 130°25'0 0.0
2016-Feb-02 05:31N 33°39' E 130°25'8 7.8
2016-Feb-02 04:34N 33°43' E 130°17'23910.9
2016-Feb-01 06:33N 34°37' E 134°58'1212.2
2016-Feb-01 05:33N 34°37' E 135°13'3 2.3
2016-Feb-01 04:20N 34°39' E 135°15'0 0.0
2016-Feb-01 03:26N 34°39' E 135°15'0 0.0
2016-Feb-01 02:32N 34°39' E 135°15'2 1.8
2016-Feb-01 01:33N 34°41' E 135°14'1 0.9
2016-Feb-01 00:30N 34°41' E 135°13'0 0.0
2016-Jan-31 23:29N 34°41' E 135°13'0 0.0
2016-Jan-31 22:30N 34°41' E 135°13'0 0.0
2016-Jan-31 21:30N 34°41' E 135°13'0 0.0
2016-Jan-31 20:30N 34°41' E 135°13'0 0.0
2016-Jan-31 19:30N 34°41' E 135°13'0 0.0
2016-Jan-31 18:30N 34°41' E 135°13'0 0.0
2016-Jan-31 17:30N 34°41' E 135°13'0 0.0
2016-Jan-31 16:29N 34°41' E 135°13'0 0.0
2016-Jan-31 15:23N 34°41' E 135°13'0 0.0
2016-Jan-31 14:30N 34°41' E 135°13'0 0.0
2016-Jan-31 13:30N 34°41' E 135°13'0 0.0
2016-Jan-31 12:29N 34°41' E 135°13'0 0.0
2016-Jan-31 11:29N 34°41' E 135°13'0 0.0
2016-Jan-31 10:30N 34°41' E 135°13'0 0.0
2016-Jan-31 09:29N 34°41' E 135°13'0 0.0
2016-Jan-31 08:29N 34°41' E 135°13'0 0.0
2016-Jan-31 07:29N 34°41' E 135°13'0 0.0
2016-Jan-31 06:29N 34°41' E 135°13'0 0.0
2016-Jan-31 05:30N 34°41' E 135°13'0 0.0
2016-Jan-31 04:29N 34°41' E 135°13'0 0.0
2016-Jan-31 03:29N 34°41' E 135°13'0 0.0
2016-Jan-31 02:29N 34°41' E 135°13'0 0.0
2016-Jan-31 01:23N 34°41' E 135°13'0 0.0
2016-Jan-31 00:23N 34°41' E 135°13'0 0.0
2016-Jan-30 23:29N 34°41' E 135°13'0 0.0
2016-Jan-30 22:29N 34°41' E 135°13'0 0.0
2016-Jan-30 21:29N 34°41' E 135°13'0 0.0
2016-Jan-30 20:29N 34°41' E 135°13'0 0.0
2016-Jan-30 19:29N 34°41' E 135°13'0 0.0
2016-Jan-30 18:29N 34°41' E 135°13'0 0.0
2016-Jan-30 17:29N 34°41' E 135°13'0 0.0
2016-Jan-30 16:29N 34°41' E 135°13'0 0.0
2016-Jan-30 15:29N 34°41' E 135°13'0 0.0
2016-Jan-30 14:29N 34°41' E 135°13'0 0.0
2016-Jan-30 13:29N 34°41' E 135°13'0 0.0
2016-Jan-30 12:29N 34°41' E 135°13'0 0.0
2016-Jan-30 11:29N 34°41' E 135°13'0 0.0
2016-Jan-30 10:29N 34°41' E 135°13'0 0.0
2016-Jan-30 09:23N 34°41' E 135°13'0 0.0
2016-Jan-30 08:29N 34°41' E 135°13'0 0.0
2016-Jan-30 07:29N 34°41' E 135°13'0 0.0
2016-Jan-30 06:29N 34°41' E 135°13'0 0.0
2016-Jan-30 05:29N 34°41' E 135°13'0 0.0
2016-Jan-30 04:29N 34°41' E 135°13'0 0.0
2016-Jan-30 03:17N 34°41' E 135°13'0 0.0
2016-Jan-30 02:23N 34°41' E 135°13'0 0.0
2016-Jan-30 01:29N 34°41' E 135°13'0 0.0
2016-Jan-30 00:29N 34°41' E 135°13'2 2.0
2016-Jan-29 23:33N 34°40' E 135°15'4 3.1
2016-Jan-29 22:19N 34°37' E 135°15'0 0.0
2016-Jan-29 21:31N 34°37' E 135°15'0 0.0
2016-Jan-29 20:31N 34°37' E 135°15'0 0.0
2016-Jan-29 19:25N 34°37' E 135°15'0 0.0
2016-Jan-29 18:31N 34°37' E 135°15'0 0.0
2016-Jan-29 17:31N 34°37' E 135°15'4 3.9
2016-Jan-29 16:33N 34°35' E 135°11'1111.0
2016-Jan-29 15:33N 34°36' E 134°57'  
Track history (hours):
 
Tides and Currents Weather Stations Pressure Air Temp Water Temp Dewpoint Dewpoint Depression Visibility Wind Speed Wind Dir Waves Ship Positions

Daikoku

Last reported at 2016-Feb-04 08:05 UTC. Time now 2016-Feb-10 08:49 UTC.
Position N 34°37' E 135°01'.

Length 95 m; draft 3.9 m.

Type: Cargo ship. MMSI: 431003009.

Date/timePositionNaut miles runAvg speedWind from/ knotsBaromVisibWave heightAir tempDewpointWater temp
2016-Feb-04 08:05N 34°37' E 135°01'712.6
2016-Feb-04 07:33N 34°36' E 135°09'8 7.3
2016-Feb-04 06:29N 34°41' E 135°17'0 0.0
2016-Feb-04 05:30N 34°41' E 135°17'4 3.9
2016-Feb-04 04:29N 34°37' E 135°16'0 0.2
2016-Feb-04 02:33N 34°37' E 135°16'2 1.9
2016-Feb-04 01:29N 34°39' E 135°15'1 1.0
2016-Feb-04 00:33N 34°40' E 135°15'2 1.4
2016-Feb-03 23:26N 34°41' E 135°17'5 4.1
2016-Feb-03 22:20N 34°37' E 135°14'0 0.0
2016-Feb-03 21:20N 34°37' E 135°14'1 1.4
2016-Feb-03 20:33N 34°36' E 135°14'1010.5
2016-Feb-03 19:33N 34°37' E 135°01'235 6.7
2016-Feb-02 08:33N 33°48' E 130°22'1010.0
2016-Feb-02 07:33N 33°39' E 130°17'6 5.9
2016-Feb-02 06:31N 33°39' E 130°25'0 0.0
2016-Feb-02 05:31N 33°39' E 130°25'8 7.8
2016-Feb-02 04:34N 33°43' E 130°17'23910.9
2016-Feb-01 06:33N 34°37' E 134°58'1212.2
2016-Feb-01 05:33N 34°37' E 135°13'3 2.3
2016-Feb-01 04:20N 34°39' E 135°15'0 0.0
2016-Feb-01 03:26N 34°39' E 135°15'0 0.0
2016-Feb-01 02:32N 34°39' E 135°15'2 1.8
2016-Feb-01 01:33N 34°41' E 135°14'1 0.9
2016-Feb-01 00:30N 34°41' E 135°13'0 0.0
2016-Jan-31 23:29N 34°41' E 135°13'0 0.0
2016-Jan-31 22:30N 34°41' E 135°13'0 0.0
2016-Jan-31 21:30N 34°41' E 135°13'0 0.0
2016-Jan-31 20:30N 34°41' E 135°13'0 0.0
2016-Jan-31 19:30N 34°41' E 135°13'0 0.0
2016-Jan-31 18:30N 34°41' E 135°13'0 0.0
2016-Jan-31 17:30N 34°41' E 135°13'0 0.0
2016-Jan-31 16:29N 34°41' E 135°13'0 0.0
2016-Jan-31 15:23N 34°41' E 135°13'0 0.0
2016-Jan-31 14:30N 34°41' E 135°13'0 0.0
2016-Jan-31 13:30N 34°41' E 135°13'0 0.0
2016-Jan-31 12:29N 34°41' E 135°13'0 0.0
2016-Jan-31 11:29N 34°41' E 135°13'0 0.0
2016-Jan-31 10:30N 34°41' E 135°13'0 0.0
2016-Jan-31 09:29N 34°41' E 135°13'0 0.0
2016-Jan-31 08:29N 34°41' E 135°13'0 0.0
2016-Jan-31 07:29N 34°41' E 135°13'0 0.0
2016-Jan-31 06:29N 34°41' E 135°13'0 0.0
2016-Jan-31 05:30N 34°41' E 135°13'0 0.0
2016-Jan-31 04:29N 34°41' E 135°13'0 0.0
2016-Jan-31 03:29N 34°41' E 135°13'0 0.0
2016-Jan-31 02:29N 34°41' E 135°13'0 0.0
2016-Jan-31 01:23N 34°41' E 135°13'0 0.0
2016-Jan-31 00:23N 34°41' E 135°13'0 0.0
2016-Jan-30 23:29N 34°41' E 135°13'0 0.0
2016-Jan-30 22:29N 34°41' E 135°13'0 0.0
2016-Jan-30 21:29N 34°41' E 135°13'0 0.0
2016-Jan-30 20:29N 34°41' E 135°13'0 0.0
2016-Jan-30 19:29N 34°41' E 135°13'0 0.0
2016-Jan-30 18:29N 34°41' E 135°13'0 0.0
2016-Jan-30 17:29N 34°41' E 135°13'0 0.0
2016-Jan-30 16:29N 34°41' E 135°13'0 0.0
2016-Jan-30 15:29N 34°41' E 135°13'0 0.0
2016-Jan-30 14:29N 34°41' E 135°13'0 0.0
2016-Jan-30 13:29N 34°41' E 135°13'0 0.0
2016-Jan-30 12:29N 34°41' E 135°13'0 0.0
2016-Jan-30 11:29N 34°41' E 135°13'0 0.0
2016-Jan-30 10:29N 34°41' E 135°13'0 0.0
2016-Jan-30 09:23N 34°41' E 135°13'0 0.0
2016-Jan-30 08:29N 34°41' E 135°13'0 0.0
2016-Jan-30 07:29N 34°41' E 135°13'0 0.0
2016-Jan-30 06:29N 34°41' E 135°13'0 0.0
2016-Jan-30 05:29N 34°41' E 135°13'0 0.0
2016-Jan-30 04:29N 34°41' E 135°13'0 0.0
2016-Jan-30 03:17N 34°41' E 135°13'0 0.0
2016-Jan-30 02:23N 34°41' E 135°13'0 0.0
2016-Jan-30 01:29N 34°41' E 135°13'0 0.0
2016-Jan-30 00:29N 34°41' E 135°13'2 2.0
2016-Jan-29 23:33N 34°40' E 135°15'4 3.1
2016-Jan-29 22:19N 34°37' E 135°15'0 0.0
2016-Jan-29 21:31N 34°37' E 135°15'0 0.0
2016-Jan-29 20:31N 34°37' E 135°15'0 0.0
2016-Jan-29 19:25N 34°37' E 135°15'0 0.0
2016-Jan-29 18:31N 34°37' E 135°15'0 0.0
2016-Jan-29 17:31N 34°37' E 135°15'4 3.9
2016-Jan-29 16:33N 34°35' E 135°11'1111.0
2016-Jan-29 15:33N 34°36' E 134°57'  

Dump ship's entire track history